Time;durP1;ratioP1;P1;durP2;ratioP2;P2;SDS_P1;SDS_P2;PMS_P1;PMS_P2;Temp;Humidity;BMP_temperature;BMP_pressure;BME280_temperature;BME280_humidity;BME280_pressure;Samples;Min_cycle;Max_cycle;Signal;HPM_P1;HPM_P2
2020/12/26 00:00:05;;;;;;;0.20;0.20;;;;;;;1.33;100.00;100707.91;4879727;29;20052;-81
2020/12/26 00:03:08;;;;;;;0.93;0.85;;;;;;;1.39;100.00;100698.13;4879191;29;20120;-81
2020/12/26 00:06:19;;;;;;;0.77;0.30;;;;;;;1.46;100.00;100689.88;4876705;29;20048;-81
2020/12/26 00:09:21;;;;;;;0.30;0.30;;;;;;;1.51;100.00;100684.00;4879185;29;20470;-80
2020/12/26 00:12:24;;;;;;;0.30;0.30;;;;;;;1.49;100.00;100674.59;4878079;29;20175;-81
2020/12/26 00:15:27;;;;;;;0.75;0.75;;;;;;;1.51;100.00;100662.06;4879128;29;20040;-81
2020/12/26 00:18:30;;;;;;;3.30;0.28;;;;;;;1.50;100.00;100648.69;4867413;29;20044;-80
2020/12/26 00:21:36;;;;;;;0.35;0.35;;;;;;;1.49;100.00;100645.16;4878411;29;20056;-80
2020/12/26 00:24:39;;;;;;;0.65;0.35;;;;;;;1.51;100.00;100650.28;4878466;29;20497;-81
2020/12/26 00:27:42;;;;;;;0.95;0.80;;;;;;;1.49;100.00;100656.16;4871146;29;20094;-81
2020/12/26 00:30:44;;;;;;;2.63;0.65;;;;;;;1.46;100.00;100651.47;4897571;29;20133;-81
2020/12/26 00:33:47;;;;;;;0.68;0.57;;;;;;;1.41;100.00;100629.91;4897650;29;20047;-82
2020/12/26 00:36:50;;;;;;;0.43;0.43;;;;;;;1.41;100.00;100629.91;4885556;29;20127;-81
2020/12/26 00:39:53;;;;;;;0.77;0.35;;;;;;;1.43;100.00;100613.81;4897202;29;20047;-81
2020/12/26 00:42:56;;;;;;;0.20;0.20;;;;;;;1.50;100.00;100602.84;4882109;29;20063;-81
2020/12/26 00:45:59;;;;;;;0.20;0.20;;;;;;;1.53;100.00;100591.06;4879140;29;20117;-81
2020/12/26 00:49:02;;;;;;;0.20;0.20;;;;;;;1.60;100.00;100586.75;4879186;29;20052;-81
2020/12/26 00:52:04;;;;;;;0.57;0.30;;;;;;;1.68;100.00;100591.00;4867194;29;20524;-81
2020/12/26 00:55:07;;;;;;;2.08;0.60;;;;;;;1.72;100.00;100589.03;4879007;29;20047;-82
2020/12/26 00:58:10;;;;;;;0.68;0.68;;;;;;;1.72;100.00;100578.06;4879064;29;20113;-81
2020/12/26 01:01:15;;;;;;;3.40;0.40;;;;;;;1.75;100.00;100580.03;4878917;29;20164;-81
2020/12/26 01:04:17;;;;;;;0.50;0.50;;;;;;;1.83;100.00;100573.31;4877964;29;20043;-81
2020/12/26 01:07:20;;;;;;;0.38;0.38;;;;;;;1.91;100.00;100580.31;4878182;29;20052;-81
2020/12/26 01:10:23;;;;;;;0.38;0.38;;;;;;;1.92;100.00;100568.97;4878357;29;20520;-81
2020/12/26 01:13:26;;;;;;;1.17;0.90;;;;;;;1.95;100.00;100564.63;4878260;29;20093;-80
2020/12/26 01:16:28;;;;;;;0.10;0.10;;;;;;;1.91;100.00;100569.34;4878090;29;20052;-82
2020/12/26 01:19:31;;;;;;;1.75;0.65;;;;;;;1.87;100.00;100568.59;4878165;29;20573;-81
2020/12/26 01:22:34;;;;;;;0.30;0.30;;;;;;;1.83;100.00;100570.56;4878096;29;20406;-81
2020/12/26 01:25:37;;;;;;;0.80;0.68;;;;;;;1.80;100.00;100574.13;4877951;29;20040;-81
2020/12/26 01:28:40;;;;;;;0.38;0.38;;;;;;;1.86;100.00;100572.53;4866689;29;20056;-81
2020/12/26 01:31:48;;;;;;;2.45;0.38;;;;;;;1.80;100.00;100557.66;4866710;29;20051;-80
2020/12/26 01:34:51;;;;;;;0.30;0.30;;;;;;;1.88;100.00;100551.72;4866926;29;20120;-81
2020/12/26 01:37:54;;;;;;;0.20;0.20;;;;;;;1.92;100.00;100540.72;4877849;29;20100;-81
2020/12/26 01:40:57;;;;;;;0.45;0.40;;;;;;;1.99;100.00;100543.44;4878207;29;20044;-81
2020/12/26 01:44:01;;;;;;;0.80;0.45;;;;;;;2.09;100.00;100545.31;4877823;29;20047;-80
2020/12/26 01:47:05;;;;;;;1.50;0.77;;;;;;;2.09;100.00;100542.56;4877849;29;20440;-80
2020/12/26 01:50:08;;;;;;;3.40;1.02;;;;;;;2.10;100.00;100538.66;4877818;29;21559;-80
2020/12/26 01:53:12;;;;;;;1.95;1.20;;;;;;;2.15;100.00;100530.75;4878418;29;20055;-81
2020/12/26 01:56:16;;;;;;;0.20;0.20;;;;;;;2.19;100.00;100525.22;4881864;29;20052;-82
2020/12/26 01:59:19;;;;;;;0.35;0.28;;;;;;;2.19;100.00;100533.47;4881481;29;20125;-82
2020/12/26 02:02:22;;;;;;;0.38;0.38;;;;;;;2.19;100.00;100536.22;4881586;29;20097;-81
2020/12/26 02:05:25;;;;;;;0.30;0.30;;;;;;;2.21;100.00;100533.84;4882099;29;20048;-81
2020/12/26 02:08:28;;;;;;;0.25;0.25;;;;;;;2.19;100.00;100526.03;4882195;29;20042;-81
2020/12/26 02:11:31;;;;;;;0.52;0.40;;;;;;;2.19;100.00;100517.00;4881834;29;20136;-81
2020/12/26 02:14:34;;;;;;;0.57;0.57;;;;;;;2.17;100.00;100517.41;4881963;29;20048;-81
2020/12/26 02:17:37;;;;;;;0.20;0.20;;;;;;;2.21;100.00;100507.16;4882213;29;20080;-81
2020/12/26 02:20:40;;;;;;;1.45;0.55;;;;;;;2.23;100.00;100515.03;4871998;29;20079;-82
2020/12/26 02:23:46;;;;;;;0.30;0.30;;;;;;;2.25;100.00;100518.16;4870013;29;20517;-82
2020/12/26 02:26:49;;;;;;;0.43;0.20;;;;;;;2.29;100.00;100496.91;4881476;29;20189;-82
2020/12/26 02:29:52;;;;;;;0.73;0.57;;;;;;;2.31;100.00;100500.03;4881356;29;20056;-81
2020/12/26 02:32:55;;;;;;;2.28;0.22;;;;;;;2.33;100.00;100494.13;4881449;29;20060;-81
2020/12/26 02:35:58;;;;;;;0.30;0.30;;;;;;;2.30;100.00;100490.22;4881372;29;20434;-81
2020/12/26 02:39:01;;;;;;;1.70;0.38;;;;;;;2.31;100.00;100494.56;4869939;29;20132;-81
2020/12/26 02:42:04;;;;;;;0.30;0.30;;;;;;;2.37;100.00;100487.44;4881421;29;20088;-81
2020/12/26 02:45:06;;;;;;;0.47;0.20;;;;;;;2.42;100.00;100484.25;4862755;29;20411;-81
2020/12/26 02:48:10;;;;;;;1.08;0.35;;;;;;;2.43;100.00;100479.53;4862873;29;20407;-81
2020/12/26 02:51:13;;;;;;;0.20;0.20;;;;;;;2.47;100.00;100480.28;4862597;29;20560;-82
2020/12/26 02:54:16;;;;;;;0.13;0.10;;;;;;;2.45;100.00;100475.19;4862649;29;20052;-81
2020/12/26 02:57:19;;;;;;;0.35;0.35;;;;;;;2.42;100.00;100470.50;4862373;29;20061;-81
2020/12/26 03:00:21;;;;;;;0.40;0.40;;;;;;;2.35;100.00;100467.81;4862660;29;20056;-81
2020/12/26 03:03:24;;;;;;;0.10;0.10;;;;;;;2.30;100.00;100454.50;4862529;29;20080;-81
2020/12/26 03:06:27;;;;;;;0.15;0.15;;;;;;;2.28;100.00;100449.41;4861625;29;20105;-81
2020/12/26 03:09:30;;;;;;;0.45;0.45;;;;;;;2.26;100.00;100443.56;4851112;29;20061;-81
2020/12/26 03:12:33;;;;;;;1.55;0.47;;;;;;;2.27;100.00;100436.09;4862297;29;20059;-81
2020/12/26 03:15:35;;;;;;;0.20;0.20;;;;;;;2.26;100.00;100426.28;4862383;29;20520;-80
2020/12/26 03:18:38;;;;;;;0.57;0.47;;;;;;;2.24;100.00;100417.66;4850669;29;20450;-81
2020/12/26 03:21:41;;;;;;;0.20;0.20;;;;;;;2.17;100.00;100395.72;4861985;29;20455;-80
2020/12/26 03:24:44;;;;;;;0.15;0.13;;;;;;;2.02;100.00;100402.53;4862044;29;20052;-81
2020/12/26 03:27:47;;;;;;;0.25;0.25;;;;;;;1.91;100.00;100394.38;4850544;29;20049;-81
2020/12/26 03:30:50;;;;;;;0.30;0.30;;;;;;;1.84;100.00;100377.19;4861927;29;20546;-82
2020/12/26 03:33:53;;;;;;;2.25;0.35;;;;;;;1.78;100.00;100374.06;4861740;29;20546;-81
2020/12/26 03:36:55;;;;;;;4.78;0.45;;;;;;;1.70;100.00;100377.28;4861770;29;20049;-81
2020/12/26 03:39:58;;;;;;;0.28;0.28;;;;;;;1.60;100.00;100372.66;4862043;29;20105;-81
2020/12/26 03:43:01;;;;;;;0.30;0.30;;;;;;;1.53;100.00;100365.25;4865040;29;20101;-81
2020/12/26 03:46:04;;;;;;;0.20;0.20;;;;;;;1.40;100.00;100361.41;4880070;29;20059;-80
2020/12/26 03:49:06;;;;;;;0.32;0.30;;;;;;;1.26;100.00;100345.78;4880186;29;20048;-81
2020/12/26 03:52:09;;;;;;;0.35;0.20;;;;;;;1.14;100.00;100340.00;4879377;29;20059;-81
2020/12/26 03:55:12;;;;;;;0.30;0.30;;;;;;;1.08;100.00;100345.13;4879847;29;20040;-81
2020/12/26 03:58:15;;;;;;;5.82;0.85;;;;;;;1.05;100.00;100337.69;4879293;29;20418;-81
2020/12/26 04:01:18;;;;;;;0.28;0.28;;;;;;;1.04;100.00;100325.13;4879140;29;20132;-82
2020/12/26 04:04:21;;;;;;;0.30;0.30;;;;;;;1.05;100.00;100315.75;4879451;29;20395;-82
2020/12/26 04:07:23;;;;;;;1.88;0.77;;;;;;;1.08;100.00;100314.97;4879187;29;20188;-81
2020/12/26 04:10:26;;;;;;;0.10;0.10;;;;;;;1.09;100.00;100299.25;4879296;29;20048;-81
2020/12/26 04:13:29;;;;;;;0.20;0.20;;;;;;;1.11;100.00;100294.94;4878946;29;20039;-82
2020/12/26 04:16:32;;;;;;;0.40;0.30;;;;;;;1.09;100.00;100283.59;4878736;29;20084;-81
2020/12/26 04:19:35;;;;;;;0.20;0.20;;;;;;;1.13;100.00;100273.38;4878745;29;20517;-80
2020/12/26 04:22:38;;;;;;;0.15;0.15;;;;;;;1.19;100.00;100271.75;4879560;29;20418;-80
2020/12/26 04:25:40;;;;;;;0.20;0.20;;;;;;;1.23;100.00;100269.81;4867938;29;20105;-80
2020/12/26 04:28:43;;;;;;;0.20;0.20;;;;;;;1.33;100.00;100271.69;4879301;29;20075;-81
2020/12/26 04:31:47;;;;;;;0.90;0.30;;;;;;;1.46;100.00;100267.28;4878947;29;20398;-80
2020/12/26 04:34:51;;;;;;;3.95;0.40;;;;;;;1.63;100.00;100262.03;4867926;29;20040;-80
2020/12/26 04:37:53;;;;;;;0.43;0.20;;;;;;;1.77;100.00;100251.72;4879238;29;20097;-80
2020/12/26 04:40:57;;;;;;;0.28;0.28;;;;;;;1.91;100.00;100240.59;4879202;29;20087;-80
2020/12/26 04:44:01;;;;;;;0.10;0.10;;;;;;;1.96;100.00;100231.13;4879019;29;20052;-79
2020/12/26 04:47:09;;;;;;;0.10;0.10;;;;;;;1.98;100.00;100228.75;4879030;29;20303;-80
2020/12/26 04:50:12;;;;;;;0.10;0.10;;;;;;;1.95;100.00;100222.09;4879108;29;20105;-80
2020/12/26 04:53:18;;;;;;;0.30;0.30;;;;;;;2.07;100.00;100227.09;4879117;29;20055;-80
2020/12/26 04:56:21;;;;;;;0.20;0.20;;;;;;;2.26;100.00;100218.25;4878675;29;20059;-81
2020/12/26 04:59:25;;;;;;;0.22;0.22;;;;;;;2.42;100.00;100225.91;4879020;29;20529;-81
2020/12/26 05:02:39;;;;;;;0.47;0.20;;;;;;;2.68;100.00;100211.44;4879102;29;20139;-80
2020/12/26 05:05:44;;;;;;;0.20;0.20;;;;;;;2.77;100.00;100202.66;4878846;29;20048;-80
2020/12/26 05:08:47;;;;;;;0.10;0.10;;;;;;;2.93;100.00;100211.84;4867281;29;20129;-80
2020/12/26 05:11:55;;;;;;;0.20;0.20;;;;;;;2.95;100.00;100195.72;4878729;29;20044;-80
2020/12/26 05:15:01;;;;;;;0.10;0.10;;;;;;;2.95;100.00;100192.97;4878671;29;20056;-81
2020/12/26 05:18:04;;;;;;;0.30;0.30;;;;;;;2.89;100.00;100194.63;4866927;29;20087;-81
2020/12/26 05:21:07;;;;;;;0.10;0.03;;;;;;;3.06;100.00;100179.81;4867084;29;20136;-81
2020/12/26 05:24:12;;;;;;;0.55;0.40;;;;;;;3.11;100.00;100186.06;4878808;29;20048;-80
2020/12/26 05:27:15;;;;;;;0.43;0.30;;;;;;;3.12;100.00;100180.13;4878654;29;20047;-80
2020/12/26 05:30:19;;;;;;;0.15;0.15;;;;;;;3.19;100.00;100173.72;4881780;29;20048;-80
2020/12/26 05:33:21;;;;;;;0.10;0.10;;;;;;;3.14;100.00;100174.22;4870978;29;20128;-80
2020/12/26 05:36:29;;;;;;;0.20;0.20;;;;;;;3.11;100.00;100169.53;4882513;29;20134;-81
2020/12/26 05:39:37;;;;;;;0.10;0.10;;;;;;;3.11;100.00;100158.53;4871004;29;20135;-80
2020/12/26 05:42:46;;;;;;;0.20;0.20;;;;;;;2.91;100.00;100148.22;4881899;29;20048;-80
2020/12/26 05:45:51;;;;;;;0.20;0.20;;;;;;;2.82;100.00;100147.97;4882384;29;20100;-80
2020/12/26 05:48:53;;;;;;;3.50;0.25;;;;;;;2.79;100.00;100137.03;4882336;29;20089;-79
2020/12/26 05:52:08;;;;;;;0.10;0.10;;;;;;;2.72;100.00;100137.13;4882169;29;20133;-79
2020/12/26 05:55:13;;;;;;;0.10;0.10;;;;;;;3.02;100.00;100137.06;4882284;29;20112;-81
2020/12/26 05:58:25;;;;;;;0.43;0.17;;;;;;;3.05;100.00;100137.00;4882077;29;20052;-80
2020/12/26 06:01:27;;;;;;;1.45;1.35;;;;;;;3.03;100.00;100125.63;4881967;29;20084;-80
2020/12/26 06:04:30;;;;;;;0.45;0.10;;;;;;;3.14;100.00;100128.19;4882094;29;20458;-80
2020/12/26 06:07:36;;;;;;;0.32;0.30;;;;;;;3.14;100.00;100121.94;4881775;29;20055;-81
2020/12/26 06:10:40;;;;;;;0.10;0.10;;;;;;;3.29;100.00;100117.75;4881980;29;20051;-79
2020/12/26 06:13:44;;;;;;;0.10;0.08;;;;;;;3.32;100.00;100116.91;4882102;29;20092;-80
2020/12/26 06:16:51;;;;;;;0.20;0.10;;;;;;;3.54;100.00;100113.34;4881900;29;20454;-80
2020/12/26 06:20:05;;;;;;;0.10;0.10;;;;;;;3.53;100.00;100100.78;4881983;29;20044;-80
2020/12/26 06:23:21;;;;;;;0.13;0.13;;;;;;;3.53;100.00;100100.00;4881659;29;20051;-79
2020/12/26 06:26:34;;;;;;;0.10;0.00;;;;;;;3.57;100.00;100112.50;4881936;29;20121;-80
2020/12/26 06:29:37;;;;;;;2.83;0.30;;;;;;;3.56;100.00;100105.44;4880975;29;20052;-82
2020/12/26 06:32:40;;;;;;;1.85;0.28;;;;;;;3.61;100.00;100107.72;4881503;29;20079;-78
2020/12/26 06:35:45;;;;;;;0.10;0.10;;;;;;;3.70;100.00;100104.41;4881780;29;20535;-80
2020/12/26 06:38:48;;;;;;;0.10;0.10;;;;;;;3.66;100.00;100087.94;4880961;29;20615;-80
2020/12/26 06:42:18;;;;;;;0.50;0.38;;;;;;;3.70;100.00;100087.88;4879094;29;20582;-79
2020/12/26 06:45:35;;;;;;;0.10;0.10;;;;;;;3.67;100.00;100080.47;4851375;29;20106;-80
2020/12/26 06:48:38;;;;;;;0.75;0.20;;;;;;;3.64;100.00;100078.53;4862358;29;20522;-80
2020/12/26 06:51:41;;;;;;;3.50;0.50;;;;;;;3.71;100.00;100083.91;4862256;29;20105;-79
2020/12/26 06:54:45;;;;;;;0.90;0.40;;;;;;;3.72;100.00;100071.72;4861365;29;20048;-79
2020/12/26 06:57:48;;;;;;;1.88;0.45;;;;;;;3.67;100.00;100067.47;4862171;29;20064;-79
2020/12/26 07:00:51;;;;;;;0.40;0.22;;;;;;;3.61;100.00;100071.91;4849550;29;20070;-80
2020/12/26 07:04:17;;;;;;;1.80;0.63;;;;;;;3.61;100.00;100063.66;4850973;29;20055;-79
2020/12/26 07:07:37;;;;;;;0.75;0.57;;;;;;;3.60;100.00;100050.28;4862197;29;20049;-80
2020/12/26 07:10:39;;;;;;;0.60;0.40;;;;;;;3.67;100.00;100056.44;4862504;29;20173;-80
2020/12/26 07:13:47;;;;;;;0.65;0.63;;;;;;;3.75;100.00;100040.56;4850754;29;20060;-80
2020/12/26 07:16:50;;;;;;;0.20;0.20;;;;;;;3.86;100.00;100038.34;4850468;29;20040;-79
2020/12/26 07:19:58;;;;;;;0.40;0.20;;;;;;;3.88;100.00;100029.69;4860103;29;20052;-79
2020/12/26 07:23:14;;;;;;;1.08;0.22;;;;;;;3.93;100.00;100029.94;4861737;29;20120;-80
2020/12/26 07:26:18;;;;;;;0.30;0.20;;;;;;;4.01;100.00;100014.81;4860068;29;20056;-79
2020/12/26 07:29:26;;;;;;;0.65;0.40;;;;;;;4.10;100.00;100012.25;4860145;29;20097;-79
2020/12/26 07:32:35;;;;;;;0.17;0.17;;;;;;;4.16;100.00;99994.00;4860093;29;20056;-79
2020/12/26 07:35:40;;;;;;;1.45;0.55;;;;;;;4.14;100.00;99985.38;4848705;29;20084;-80
2020/12/26 07:38:43;;;;;;;0.28;0.25;;;;;;;4.18;100.00;99980.56;4859785;29;20105;-80
2020/12/26 07:41:47;;;;;;;0.40;0.10;;;;;;;4.17;100.00;99984.53;4848255;29;20099;-80
2020/12/26 07:44:51;;;;;;;0.43;0.28;;;;;;;4.20;100.00;99982.91;4877538;29;20136;-79
2020/12/26 07:47:57;;;;;;;0.20;0.20;;;;;;;4.18;100.00;99975.03;4879231;29;20113;-80
2020/12/26 07:51:00;;;;;;;1.30;0.35;;;;;;;4.14;100.00;99974.34;4867964;29;20544;-79
2020/12/26 07:54:04;;;;;;;2.33;0.55;;;;;;;4.13;100.00;99969.28;4879540;29;20052;-79
2020/12/26 07:57:07;;;;;;;0.10;0.10;;;;;;;4.18;100.00;99977.81;4884275;29;20770;-80
2020/12/26 08:00:26;;;;;;;0.65;0.30;;;;;;;4.18;100.00;99969.53;4897997;29;20051;-80
2020/12/26 08:03:28;;;;;;;0.20;0.10;;;;;;;4.15;100.00;99951.13;4897627;29;20043;-80
2020/12/26 08:06:31;;;;;;;0.43;0.20;;;;;;;4.18;100.00;99953.00;4886067;29;20099;-80
2020/12/26 08:09:34;;;;;;;0.60;0.25;;;;;;;4.18;100.00;99947.47;4886058;29;20043;-79
2020/12/26 08:12:37;;;;;;;10.98;0.30;;;;;;;4.27;100.00;99939.41;4886097;29;20521;-80
2020/12/26 08:15:40;;;;;;;1.48;0.40;;;;;;;4.41;100.00;99947.34;4886391;29;20577;-81
2020/12/26 08:18:44;;;;;;;2.17;0.75;;;;;;;4.48;100.00;99943.63;4897589;29;20047;-80
2020/12/26 08:21:47;;;;;;;11.10;2.58;;;;;;;4.53;100.00;99940.31;4897063;29;20180;-79
2020/12/26 08:25:05;;;;;;;3.40;1.00;;;;;;;4.53;100.00;99938.34;4897898;29;20047;-80
2020/12/26 08:28:09;;;;;;;1.02;0.38;;;;;;;4.48;100.00;99933.34;4886542;29;20111;-84
2020/12/26 08:31:14;;;;;;;2.17;0.63;;;;;;;4.64;100.00;99935.31;4898256;29;20409;-83
2020/12/26 08:34:22;;;;;;;0.13;0.13;;;;;;;4.61;100.00;99931.44;4886619;29;20066;-81
2020/12/26 08:37:29;;;;;;;4.80;0.82;;;;;;;4.59;100.00;99933.09;4898443;29;20047;-83
2020/12/26 08:40:35;;;;;;;1.50;0.25;;;;;;;4.56;100.00;99934.75;4898029;29;20044;-83
2020/12/26 08:43:39;;;;;;;2.22;0.60;;;;;;;4.55;100.00;99935.94;4889541;29;20048;-82
2020/12/26 08:46:44;;;;;;;1.08;0.60;;;;;;;4.55;100.00;99927.66;4880418;29;20529;-86
2020/12/26 08:49:46;;;;;;;1.58;0.47;;;;;;;4.61;100.00;99909.38;4869317;29;20164;-85
2020/12/26 08:53:02;;;;;;;2.10;0.73;;;;;;;4.58;100.00;99909.47;4868927;29;20414;-87
2020/12/26 08:56:05;;;;;;;0.50;0.40;;;;;;;4.55;100.00;99900.09;4868431;29;20060;-85
2020/12/26 08:59:08;;;;;;;0.17;0.15;;;;;;;4.49;100.00;99895.53;4868380;29;20041;-87
2020/12/26 09:02:11;;;;;;;1.17;0.20;;;;;;;4.43;100.00;99898.06;4868599;29;20052;-86
2020/12/26 09:05:28;;;;;;;0.20;0.20;;;;;;;4.34;100.00;99877.81;4867649;29;20693;-86
2020/12/26 09:08:32;;;;;;;3.30;0.55;;;;;;;4.29;100.00;99881.84;4867867;29;20537;-81
2020/12/26 09:11:35;;;;;;;1.17;0.13;;;;;;;4.30;100.00;99872.41;4878999;29;20104;-81
2020/12/26 09:14:38;;;;;;;0.30;0.22;;;;;;;4.26;100.00;99855.19;4879017;29;20125;-78
2020/12/26 09:17:41;;;;;;;0.30;0.20;;;;;;;4.18;100.00;99848.28;4878681;29;20072;-80
2020/12/26 09:20:49;;;;;;;0.90;0.50;;;;;;;4.14;100.00;99842.06;4878699;29;20051;-79
2020/12/26 09:23:56;;;;;;;0.10;0.10;;;;;;;4.15;100.00;99827.09;4878912;29;20113;-80
2020/12/26 09:26:59;;;;;;;0.80;0.57;;;;;;;4.30;100.00;99844.81;4879062;29;20067;-78
2020/12/26 09:30:04;;;;;;;1.65;0.90;;;;;;;4.34;100.00;99834.47;4878544;29;20541;-80
2020/12/26 09:33:07;;;;;;;5.28;1.00;;;;;;;4.43;100.00;99831.88;4878809;29;20124;-80
2020/12/26 09:36:14;;;;;;;3.20;0.90;;;;;;;4.44;100.00;99814.13;4878711;29;20450;-79
2020/12/26 09:39:17;;;;;;;1.15;0.88;;;;;;;4.47;100.00;99827.03;4878698;29;20079;-83
2020/12/26 09:42:26;;;;;;;3.30;0.70;;;;;;;4.52;100.00;99803.69;4867044;29;20048;-82
2020/12/26 09:45:28;;;;;;;1.00;0.80;;;;;;;4.54;100.00;99810.31;4859967;29;20089;-81
2020/12/26 09:48:32;;;;;;;7.40;1.58;;;;;;;4.56;100.00;99799.63;4860126;29;20113;-84
2020/12/26 09:51:35;;;;;;;2.58;0.60;;;;;;;4.58;100.00;99794.44;4860010;29;20044;-83
2020/12/26 09:54:37;;;;;;;0.57;0.38;;;;;;;4.60;100.00;99775.47;4848648;29;20129;-82
2020/12/26 09:57:40;;;;;;;4.78;1.08;;;;;;;4.68;100.00;99764.25;4859830;29;20152;-82
2020/12/26 10:00:43;;;;;;;4.70;1.13;;;;;;;4.75;100.00;99764.00;4859561;29;20045;-82
2020/12/26 10:03:48;;;;;;;1.85;0.63;;;;;;;4.74;100.00;99737.66;4859879;29;20137;-83
2020/12/26 10:06:51;;;;;;;2.30;0.52;;;;;;;4.81;100.00;99718.16;4859500;29;20202;-79
2020/12/26 10:09:54;;;;;;;10.00;1.17;;;;;;;4.90;100.00;99745.84;4864749;29;20117;-79
2020/12/26 10:12:57;;;;;;;0.73;0.65;;;;;;;4.85;100.00;99754.69;4877668;29;20048;-81
2020/12/26 10:16:00;;;;;;;0.10;0.10;;;;;;;4.84;100.00;99740.09;4879902;29;20041;-81
2020/12/26 10:19:05;;;;;;;0.55;0.32;;;;;;;4.90;100.00;99737.56;4879021;29;20246;-81
2020/12/26 10:22:08;;;;;;;0.73;0.40;;;;;;;4.87;100.00;99738.44;4880754;29;20132;-80
2020/12/26 10:25:11;;;;;;;0.40;0.38;;;;;;;4.84;100.00;99751.13;4880736;29;20041;-81
2020/12/26 10:28:14;;;;;;;1.65;0.25;;;;;;;4.80;100.00;99746.94;4867449;29;20048;-80
2020/12/26 10:31:17;;;;;;;0.20;0.13;;;;;;;4.72;100.00;99731.81;4869610;29;20394;-79
2020/12/26 10:34:19;;;;;;;0.22;0.15;;;;;;;4.59;100.00;99729.78;4878547;29;20040;-80
2020/12/26 10:37:22;;;;;;;2.58;0.22;;;;;;;4.53;100.00;99709.47;4899857;29;20135;-79
2020/12/26 10:40:25;;;;;;;0.82;0.50;;;;;;;4.50;100.00;99693.81;4900161;29;20124;-81
2020/12/26 10:43:28;;;;;;;1.40;0.63;;;;;;;4.51;100.00;99678.81;4892608;29;20718;-83
2020/12/26 10:46:31;;;;;;;6.63;1.17;;;;;;;4.55;100.00;99653.88;4894773;29;20104;-83
2020/12/26 10:49:34;;;;;;;7.93;0.82;;;;;;;4.61;100.00;99638.34;4899734;29;20052;-81
2020/12/26 10:52:36;;;;;;;1.83;0.82;;;;;;;4.66;100.00;99634.28;4888395;29;20064;-84
2020/12/26 10:55:39;;;;;;;0.50;0.20;;;;;;;4.76;100.00;99619.38;4888908;29;20173;-86
2020/12/26 10:58:42;;;;;;;2.78;0.30;;;;;;;4.84;100.00;99617.94;4886499;29;20052;-80
2020/12/26 11:01:46;;;;;;;0.30;0.10;;;;;;;4.87;100.00;99611.53;4868532;29;20519;-82
2020/12/26 11:04:49;;;;;;;0.30;0.30;;;;;;;4.94;100.00;99594.75;4880300;29;20052;-81
2020/12/26 11:07:52;;;;;;;1.17;0.75;;;;;;;5.06;100.00;99585.69;4880815;29;20108;-81
2020/12/26 11:10:54;;;;;;;0.77;0.40;;;;;;;5.22;100.00;99574.47;4880818;29;20420;-84
2020/12/26 11:13:57;;;;;;;2.88;0.32;;;;;;;5.31;100.00;99558.00;4880786;29;20087;-81
2020/12/26 11:17:00;;;;;;;2.28;0.40;;;;;;;5.32;100.00;99559.56;4880834;29;20044;-81
2020/12/26 11:20:03;;;;;;;2.05;0.20;;;;;;;5.39;100.00;99548.28;4880693;29;20479;-81
2020/12/26 11:23:06;;;;;;;1.30;0.55;;;;;;;5.49;100.00;99530.56;4880895;29;20619;-81
2020/12/26 11:26:12;;;;;;;0.10;0.00;;;;;;;5.65;100.00;99529.59;4880351;29;20048;-81
2020/12/26 11:29:15;;;;;;;29.40;5.15;;;;;;;5.70;100.00;99518.72;4881184;29;20048;-85
2020/12/26 11:32:18;;;;;;;56.38;13.50;;;;;;;5.83;100.00;99511.13;4869993;29;20052;-86
2020/12/26 11:35:21;;;;;;;60.45;16.80;;;;;;;5.94;100.00;99510.75;4881784;29;20133;-87
2020/12/26 11:38:24;;;;;;;53.28;15.27;;;;;;;6.04;100.00;99493.78;4869164;29;20044;-87
2020/12/26 11:41:28;;;;;;;2.65;1.23;;;;;;;6.13;100.00;99485.53;4881160;29;20434;-82
2020/12/26 11:44:31;;;;;;;4.38;1.95;;;;;;;6.19;100.00;99488.47;4870186;29;20075;-86
2020/12/26 11:47:36;;;;;;;6.53;0.70;;;;;;;6.20;100.00;99478.16;4881441;29;20143;-88
2020/12/26 11:50:39;;;;;;;5.13;1.48;;;;;;;6.24;100.00;99514.78;4869571;29;20075;-87
2020/12/26 11:53:42;;;;;;;1.48;0.90;;;;;;;6.29;100.00;99506.63;4867988;29;20084;-81
2020/12/26 11:56:45;;;;;;;2.03;0.95;;;;;;;6.37;100.00;99493.28;4889330;29;20059;-80
2020/12/26 11:59:47;;;;;;;6.22;1.75;;;;;;;6.39;100.00;99485.34;4898793;29;20070;-82
2020/12/26 12:02:50;;;;;;;3.17;0.60;;;;;;;6.43;100.00;99485.94;4886864;29;20121;-83
2020/12/26 12:05:53;;;;;;;8.50;1.83;;;;;;;6.42;100.00;99485.19;4876518;29;20095;-83
2020/12/26 12:08:58;;;;;;;5.60;1.48;;;;;;;6.45;100.00;99475.19;4853608;29;20520;-82
2020/12/26 12:12:01;;;;;;;14.30;1.88;;;;;;;6.50;100.00;99460.75;4866304;29;20075;-83
2020/12/26 12:15:03;;;;;;;2.35;0.38;;;;;;;6.58;100.00;99453.72;4867590;29;20141;-82
2020/12/26 12:18:07;;;;;;;6.07;1.55;;;;;;;6.56;100.00;99432.03;4864594;29;20139;-82
2020/12/26 12:21:10;;;;;;;2.47;1.20;;;;;;;6.55;100.00;99415.91;4864871;29;20275;-86
2020/12/26 12:24:14;;;;;;;7.85;1.25;;;;;;;6.53;100.00;99412.81;4877776;29;20100;-87
2020/12/26 12:27:17;;;;;;;0.30;0.30;;;;;;;6.56;100.00;99428.50;4865968;29;20063;-88
2020/12/26 12:30:22;;;;;;;6.97;0.65;;;;;;;6.56;100.00;99398.09;4863491;29;20044;-89
2020/12/26 12:33:25;;;;;;;3.13;0.45;;;;;;;6.53;100.00;99374.09;4855754;29;20043;-84
2020/12/26 12:36:27;;;;;;;3.95;0.65;;;;;;;6.56;100.00;99351.06;4854980;29;20047;-84
2020/12/26 12:39:30;;;;;;;0.85;0.22;;;;;;;6.55;100.00;99344.75;4868210;29;20059;-85
2020/12/26 12:42:34;;;;;;;16.45;1.67;;;;;;;6.51;100.00;99324.00;4854050;29;20039;-84
2020/12/26 12:45:37;;;;;;;1.10;0.50;;;;;;;6.52;100.00;99329.06;4831504;29;20068;-85
2020/12/26 12:48:40;;;;;;;2.72;0.70;;;;;;;6.52;100.00;99331.81;4821216;29;20144;-84
2020/12/26 12:51:43;;;;;;;3.25;0.20;;;;;;;6.48;100.00;99322.16;4840886;29;20028;-83
2020/12/26 12:54:46;;;;;;;1.60;0.60;;;;;;;6.52;100.00;99306.19;4860375;29;20136;-86
2020/12/26 12:57:49;;;;;;;0.30;0.30;;;;;;;6.49;100.00;99291.28;4864763;29;20847;-87
2020/12/26 13:00:52;;;;;;;1.65;0.32;;;;;;;6.54;100.00;99287.88;4844251;29;20848;-82
2020/12/26 13:03:55;;;;;;;1.88;0.57;;;;;;;6.49;100.00;99258.09;4836826;29;21263;-79
2020/12/26 13:06:58;;;;;;;0.40;0.40;;;;;;;6.47;100.00;99248.72;4826395;29;20422;-81
2020/12/26 13:10:01;;;;;;;0.47;0.20;;;;;;;6.50;100.00;99250.53;4825585;29;20041;-86
2020/12/26 13:13:03;;;;;;;8.88;0.38;;;;;;;6.50;100.00;99242.25;4830935;29;20704;-89
2020/12/26 13:16:07;;;;;;;4.63;0.60;;;;;;;6.50;100.00;99231.19;4832851;29;21184;-82
2020/12/26 13:19:10;;;;;;;0.10;0.10;;;;;;;6.50;100.00;99215.34;4835715;29;20097;-84
2020/12/26 13:22:13;;;;;;;3.85;1.55;;;;;;;6.54;100.00;99198.63;4845602;29;20093;-79
2020/12/26 13:25:16;;;;;;;13.98;0.88;;;;;;;6.63;100.00;99177.22;4832381;29;20789;-78
2020/12/26 13:28:19;;;;;;;0.82;0.32;;;;;;;6.60;100.00;99171.84;4844739;29;20803;-77
2020/12/26 13:31:31;;;;;;;2.78;0.85;;;;;;;6.61;100.00;99159.53;4833088;29;20612;-75
2020/12/26 13:34:34;;;;;;;4.95;0.65;;;;;;;6.62;100.00;99141.72;4843877;29;20068;-78
2020/12/26 13:37:37;;;;;;;3.83;0.73;;;;;;;6.69;100.00;99125.53;4833654;29;20040;-81
2020/12/26 13:40:40;;;;;;;3.13;0.80;;;;;;;6.69;100.00;99125.53;4846908;29;20046;-82
2020/12/26 13:43:43;;;;;;;4.70;1.17;;;;;;;6.73;100.00;99100.50;4848098;29;20063;-82
2020/12/26 13:46:47;;;;;;;2.95;0.40;;;;;;;6.71;100.00;99080.84;4847452;29;20044;-81
2020/12/26 13:49:51;;;;;;;1.55;0.35;;;;;;;6.70;100.00;99057.16;4847474;29;20847;-81
2020/12/26 13:52:53;;;;;;;12.57;1.58;;;;;;;6.64;100.00;99054.28;4851662;29;20068;-81
2020/12/26 13:55:57;;;;;;;4.30;0.47;;;;;;;6.62;100.00;99044.91;4853499;29;20128;-80
2020/12/26 13:58:59;;;;;;;4.90;1.48;;;;;;;6.55;100.00;99026.66;4839644;29;20052;-82
2020/12/26 14:02:03;;;;;;;0.70;0.55;;;;;;;6.53;100.00;99020.03;4840428;29;20101;-82
2020/12/26 14:05:06;;;;;;;7.07;0.95;;;;;;;6.59;100.00;98991.28;4840403;29;20044;-81
2020/12/26 14:08:09;;;;;;;0.68;0.57;;;;;;;6.53;100.00;98984.88;4850964;29;20731;-82
2020/12/26 14:11:11;;;;;;;0.20;0.20;;;;;;;6.50;100.00;98976.72;4852469;29;20063;-82
2020/12/26 14:14:15;;;;;;;2.88;0.82;;;;;;;6.53;100.00;98964.72;4850223;29;20120;-81
2020/12/26 14:17:18;;;;;;;13.40;1.83;;;;;;;6.58;100.00;98955.78;4852354;29;20302;-84
2020/12/26 14:20:21;;;;;;;1.30;0.45;;;;;;;6.53;100.00;98937.84;4840294;29;20104;-82